sensor_id;sensor_type;location;lat;lon;timestamp;P1;durP1;ratioP1;P2;durP2;ratioP2
19621;SDS011;9958;33.196;-97.114;2023-09-19T00:00:42;3.63;;;2.88;;
19621;SDS011;9958;33.196;-97.114;2023-09-19T00:03:12;2.95;;;2.63;;
19621;SDS011;9958;33.196;-97.114;2023-09-19T00:05:41;4.53;;;2.72;;
19621;SDS011;9958;33.196;-97.114;2023-09-19T00:08:10;3.55;;;2.80;;
19621;SDS011;9958;33.196;-97.114;2023-09-19T00:10:39;3.80;;;2.83;;
19621;SDS011;9958;33.196;-97.114;2023-09-19T00:13:07;4.88;;;2.80;;
19621;SDS011;9958;33.196;-97.114;2023-09-19T00:15:40;3.25;;;2.63;;
19621;SDS011;9958;33.196;-97.114;2023-09-19T00:18:14;3.85;;;2.90;;
19621;SDS011;9958;33.196;-97.114;2023-09-19T00:20:42;4.93;;;2.78;;
19621;SDS011;9958;33.196;-97.114;2023-09-19T00:23:13;3.80;;;2.80;;
19621;SDS011;9958;33.196;-97.114;2023-09-19T00:25:42;5.25;;;2.58;;
19621;SDS011;9958;33.196;-97.114;2023-09-19T00:28:10;3.03;;;2.72;;
19621;SDS011;9958;33.196;-97.114;2023-09-19T00:30:43;5.03;;;2.50;;
19621;SDS011;9958;33.196;-97.114;2023-09-19T00:33:15;4.25;;;2.95;;
19621;SDS011;9958;33.196;-97.114;2023-09-19T00:35:47;2.60;;;2.35;;
19621;SDS011;9958;33.196;-97.114;2023-09-19T00:38:16;3.00;;;2.75;;
19621;SDS011;9958;33.196;-97.114;2023-09-19T00:40:46;3.28;;;2.50;;
19621;SDS011;9958;33.196;-97.114;2023-09-19T00:43:15;3.28;;;2.95;;
19621;SDS011;9958;33.196;-97.114;2023-09-19T00:45:45;3.40;;;2.85;;
19621;SDS011;9958;33.196;-97.114;2023-09-19T00:48:15;5.80;;;2.65;;
19621;SDS011;9958;33.196;-97.114;2023-09-19T00:50:45;4.50;;;2.80;;
19621;SDS011;9958;33.196;-97.114;2023-09-19T00:53:15;4.57;;;2.85;;
19621;SDS011;9958;33.196;-97.114;2023-09-19T00:55:48;4.68;;;2.90;;
19621;SDS011;9958;33.196;-97.114;2023-09-19T00:58:18;4.95;;;3.10;;
19621;SDS011;9958;33.196;-97.114;2023-09-19T01:00:48;4.63;;;2.55;;
19621;SDS011;9958;33.196;-97.114;2023-09-19T01:03:18;2.70;;;2.50;;
19621;SDS011;9958;33.196;-97.114;2023-09-19T01:05:47;4.00;;;3.03;;
19621;SDS011;9958;33.196;-97.114;2023-09-19T01:08:16;4.82;;;2.92;;
19621;SDS011;9958;33.196;-97.114;2023-09-19T01:10:48;4.10;;;3.00;;
19621;SDS011;9958;33.196;-97.114;2023-09-19T01:13:23;3.70;;;3.05;;
19621;SDS011;9958;33.196;-97.114;2023-09-19T01:16:02;8.10;;;2.90;;
19621;SDS011;9958;33.196;-97.114;2023-09-19T01:18:40;3.83;;;3.15;;
19621;SDS011;9958;33.196;-97.114;2023-09-19T01:21:19;3.60;;;2.78;;
19621;SDS011;9958;33.196;-97.114;2023-09-19T01:24:02;3.92;;;2.92;;
19621;SDS011;9958;33.196;-97.114;2023-09-19T01:26:52;4.07;;;3.30;;
19621;SDS011;9958;33.196;-97.114;2023-09-19T01:29:46;3.13;;;2.83;;
19621;SDS011;9958;33.196;-97.114;2023-09-19T01:32:17;4.75;;;2.95;;
19621;SDS011;9958;33.196;-97.114;2023-09-19T01:34:49;3.05;;;2.75;;
19621;SDS011;9958;33.196;-97.114;2023-09-19T01:37:19;3.70;;;3.08;;
19621;SDS011;9958;33.196;-97.114;2023-09-19T01:39:51;3.45;;;2.83;;
19621;SDS011;9958;33.196;-97.114;2023-09-19T01:42:25;5.22;;;3.10;;
19621;SDS011;9958;33.196;-97.114;2023-09-19T01:45:03;6.13;;;3.25;;
19621;SDS011;9958;33.196;-97.114;2023-09-19T01:47:41;4.47;;;3.40;;
19621;SDS011;9958;33.196;-97.114;2023-09-19T01:50:17;3.42;;;2.78;;
19621;SDS011;9958;33.196;-97.114;2023-09-19T01:52:54;3.47;;;3.03;;
19621;SDS011;9958;33.196;-97.114;2023-09-19T01:55:30;4.05;;;3.10;;
19621;SDS011;9958;33.196;-97.114;2023-09-19T01:58:04;4.60;;;2.97;;
19621;SDS011;9958;33.196;-97.114;2023-09-19T02:00:36;5.18;;;2.90;;
19621;SDS011;9958;33.196;-97.114;2023-09-19T02:03:08;5.43;;;3.00;;
19621;SDS011;9958;33.196;-97.114;2023-09-19T02:05:39;4.07;;;3.22;;
19621;SDS011;9958;33.196;-97.114;2023-09-19T02:08:07;5.40;;;3.25;;
19621;SDS011;9958;33.196;-97.114;2023-09-19T02:10:36;5.55;;;3.30;;
19621;SDS011;9958;33.196;-97.114;2023-09-19T02:13:05;3.95;;;3.00;;
19621;SDS011;9958;33.196;-97.114;2023-09-19T02:15:34;6.55;;;3.05;;
19621;SDS011;9958;33.196;-97.114;2023-09-19T02:18:03;3.50;;;2.97;;
19621;SDS011;9958;33.196;-97.114;2023-09-19T02:20:34;5.63;;;3.40;;
19621;SDS011;9958;33.196;-97.114;2023-09-19T02:23:02;8.25;;;3.70;;
19621;SDS011;9958;33.196;-97.114;2023-09-19T02:25:31;5.05;;;3.08;;
19621;SDS011;9958;33.196;-97.114;2023-09-19T02:28:00;6.35;;;2.90;;
19621;SDS011;9958;33.196;-97.114;2023-09-19T02:30:29;3.28;;;2.90;;
19621;SDS011;9958;33.196;-97.114;2023-09-19T02:32:57;3.80;;;2.92;;
19621;SDS011;9958;33.196;-97.114;2023-09-19T02:35:27;3.97;;;2.83;;
19621;SDS011;9958;33.196;-97.114;2023-09-19T02:38:00;4.82;;;3.05;;
19621;SDS011;9958;33.196;-97.114;2023-09-19T02:40:31;5.30;;;3.10;;
19621;SDS011;9958;33.196;-97.114;2023-09-19T02:43:01;2.85;;;2.65;;
19621;SDS011;9958;33.196;-97.114;2023-09-19T02:45:30;4.78;;;3.20;;
19621;SDS011;9958;33.196;-97.114;2023-09-19T02:47:59;3.92;;;3.13;;
19621;SDS011;9958;33.196;-97.114;2023-09-19T02:50:28;4.30;;;2.95;;
19621;SDS011;9958;33.196;-97.114;2023-09-19T02:52:56;8.65;;;3.10;;
19621;SDS011;9958;33.196;-97.114;2023-09-19T02:55:26;3.95;;;2.80;;
19621;SDS011;9958;33.196;-97.114;2023-09-19T02:57:55;3.95;;;3.33;;
19621;SDS011;9958;33.196;-97.114;2023-09-19T03:00:23;3.60;;;3.08;;
19621;SDS011;9958;33.196;-97.114;2023-09-19T03:02:53;4.13;;;3.17;;
19621;SDS011;9958;33.196;-97.114;2023-09-19T03:05:22;4.75;;;3.47;;
19621;SDS011;9958;33.196;-97.114;2023-09-19T03:07:51;4.15;;;2.90;;
19621;SDS011;9958;33.196;-97.114;2023-09-19T03:10:21;4.82;;;3.40;;
19621;SDS011;9958;33.196;-97.114;2023-09-19T03:12:51;5.32;;;3.40;;
19621;SDS011;9958;33.196;-97.114;2023-09-19T03:15:20;5.10;;;3.80;;
19621;SDS011;9958;33.196;-97.114;2023-09-19T03:17:48;5.63;;;2.90;;
19621;SDS011;9958;33.196;-97.114;2023-09-19T03:20:19;5.72;;;3.10;;
19621;SDS011;9958;33.196;-97.114;2023-09-19T03:22:48;4.07;;;2.88;;
19621;SDS011;9958;33.196;-97.114;2023-09-19T03:25:16;5.65;;;3.40;;
19621;SDS011;9958;33.196;-97.114;2023-09-19T03:27:44;3.53;;;2.92;;
19621;SDS011;9958;33.196;-97.114;2023-09-19T03:30:14;4.40;;;3.25;;
19621;SDS011;9958;33.196;-97.114;2023-09-19T03:32:46;4.55;;;3.10;;
19621;SDS011;9958;33.196;-97.114;2023-09-19T03:35:15;4.05;;;3.28;;
19621;SDS011;9958;33.196;-97.114;2023-09-19T03:37:43;4.13;;;3.13;;
19621;SDS011;9958;33.196;-97.114;2023-09-19T03:40:12;5.72;;;3.45;;
19621;SDS011;9958;33.196;-97.114;2023-09-19T03:42:41;4.25;;;3.10;;
19621;SDS011;9958;33.196;-97.114;2023-09-19T03:45:10;3.92;;;3.20;;
19621;SDS011;9958;33.196;-97.114;2023-09-19T03:47:40;4.75;;;3.10;;
19621;SDS011;9958;33.196;-97.114;2023-09-19T03:50:09;3.92;;;3.30;;
19621;SDS011;9958;33.196;-97.114;2023-09-19T03:52:37;6.25;;;3.55;;
19621;SDS011;9958;33.196;-97.114;2023-09-19T03:55:06;3.75;;;3.05;;
19621;SDS011;9958;33.196;-97.114;2023-09-19T03:57:35;5.95;;;3.45;;
19621;SDS011;9958;33.196;-97.114;2023-09-19T04:00:04;6.88;;;3.50;;
19621;SDS011;9958;33.196;-97.114;2023-09-19T04:02:37;4.53;;;3.50;;
19621;SDS011;9958;33.196;-97.114;2023-09-19T04:05:07;4.38;;;3.25;;
19621;SDS011;9958;33.196;-97.114;2023-09-19T04:07:36;3.80;;;3.40;;
19621;SDS011;9958;33.196;-97.114;2023-09-19T04:10:05;5.85;;;3.70;;
19621;SDS011;9958;33.196;-97.114;2023-09-19T04:12:34;4.88;;;3.15;;
19621;SDS011;9958;33.196;-97.114;2023-09-19T04:15:03;6.22;;;3.10;;
19621;SDS011;9958;33.196;-97.114;2023-09-19T04:17:31;3.60;;;3.15;;
19621;SDS011;9958;33.196;-97.114;2023-09-19T04:20:00;5.88;;;3.67;;
19621;SDS011;9958;33.196;-97.114;2023-09-19T04:22:33;3.90;;;3.20;;
19621;SDS011;9958;33.196;-97.114;2023-09-19T04:25:02;5.20;;;3.50;;
19621;SDS011;9958;33.196;-97.114;2023-09-19T04:27:32;7.40;;;3.13;;
19621;SDS011;9958;33.196;-97.114;2023-09-19T04:30:00;3.65;;;3.03;;
19621;SDS011;9958;33.196;-97.114;2023-09-19T04:32:35;3.65;;;3.10;;
19621;SDS011;9958;33.196;-97.114;2023-09-19T04:35:05;6.35;;;3.13;;
19621;SDS011;9958;33.196;-97.114;2023-09-19T04:37:39;4.38;;;3.58;;
19621;SDS011;9958;33.196;-97.114;2023-09-19T04:40:08;3.33;;;2.95;;
19621;SDS011;9958;33.196;-97.114;2023-09-19T04:42:42;3.70;;;3.13;;
19621;SDS011;9958;33.196;-97.114;2023-09-19T04:45:11;5.15;;;3.60;;
19621;SDS011;9958;33.196;-97.114;2023-09-19T04:47:40;5.07;;;3.05;;
19621;SDS011;9958;33.196;-97.114;2023-09-19T04:50:09;4.63;;;3.33;;
19621;SDS011;9958;33.196;-97.114;2023-09-19T04:52:41;3.65;;;3.25;;
19621;SDS011;9958;33.196;-97.114;2023-09-19T04:55:10;6.97;;;3.30;;
19621;SDS011;9958;33.196;-97.114;2023-09-19T04:57:41;5.25;;;3.20;;
19621;SDS011;9958;33.196;-97.114;2023-09-19T05:00:12;9.15;;;3.40;;
19621;SDS011;9958;33.196;-97.114;2023-09-19T05:02:42;4.10;;;3.38;;
19621;SDS011;9958;33.196;-97.114;2023-09-19T05:05:11;4.90;;;3.20;;
19621;SDS011;9958;33.196;-97.114;2023-09-19T05:07:41;5.38;;;3.33;;
19621;SDS011;9958;33.196;-97.114;2023-09-19T05:10:11;4.55;;;2.90;;
19621;SDS011;9958;33.196;-97.114;2023-09-19T05:12:39;4.85;;;3.90;;
19621;SDS011;9958;33.196;-97.114;2023-09-19T05:15:10;4.32;;;3.22;;
19621;SDS011;9958;33.196;-97.114;2023-09-19T05:17:40;5.57;;;3.78;;
19621;SDS011;9958;33.196;-97.114;2023-09-19T05:20:08;4.18;;;3.33;;
19621;SDS011;9958;33.196;-97.114;2023-09-19T05:22:42;4.40;;;3.17;;
19621;SDS011;9958;33.196;-97.114;2023-09-19T05:25:11;5.82;;;3.33;;
19621;SDS011;9958;33.196;-97.114;2023-09-19T05:27:41;5.45;;;3.42;;
19621;SDS011;9958;33.196;-97.114;2023-09-19T05:30:10;4.53;;;3.30;;
19621;SDS011;9958;33.196;-97.114;2023-09-19T05:32:41;6.00;;;3.50;;
19621;SDS011;9958;33.196;-97.114;2023-09-19T05:35:09;7.40;;;3.75;;
19621;SDS011;9958;33.196;-97.114;2023-09-19T05:37:38;4.50;;;3.28;;
19621;SDS011;9958;33.196;-97.114;2023-09-19T05:40:09;5.15;;;3.50;;
19621;SDS011;9958;33.196;-97.114;2023-09-19T05:42:37;4.82;;;3.45;;
19621;SDS011;9958;33.196;-97.114;2023-09-19T05:45:07;5.90;;;3.28;;
19621;SDS011;9958;33.196;-97.114;2023-09-19T05:47:37;3.90;;;3.17;;
19621;SDS011;9958;33.196;-97.114;2023-09-19T05:50:09;5.40;;;3.55;;
19621;SDS011;9958;33.196;-97.114;2023-09-19T05:52:38;3.83;;;3.22;;
19621;SDS011;9958;33.196;-97.114;2023-09-19T05:55:11;9.23;;;2.80;;
19621;SDS011;9958;33.196;-97.114;2023-09-19T05:57:40;3.95;;;3.55;;
19621;SDS011;9958;33.196;-97.114;2023-09-19T06:00:09;4.35;;;3.35;;
19621;SDS011;9958;33.196;-97.114;2023-09-19T06:02:39;5.55;;;3.20;;
19621;SDS011;9958;33.196;-97.114;2023-09-19T06:05:06;6.65;;;3.63;;
19621;SDS011;9958;33.196;-97.114;2023-09-19T06:07:36;3.60;;;3.25;;
19621;SDS011;9958;33.196;-97.114;2023-09-19T06:10:04;5.18;;;3.58;;
19621;SDS011;9958;33.196;-97.114;2023-09-19T06:12:39;3.58;;;3.28;;
19621;SDS011;9958;33.196;-97.114;2023-09-19T06:15:09;5.43;;;3.88;;
19621;SDS011;9958;33.196;-97.114;2023-09-19T06:17:41;5.25;;;3.22;;
19621;SDS011;9958;33.196;-97.114;2023-09-19T06:20:10;6.78;;;3.95;;
19621;SDS011;9958;33.196;-97.114;2023-09-19T06:22:40;4.72;;;3.70;;
19621;SDS011;9958;33.196;-97.114;2023-09-19T06:25:09;3.88;;;3.35;;
19621;SDS011;9958;33.196;-97.114;2023-09-19T06:27:39;4.68;;;3.50;;
19621;SDS011;9958;33.196;-97.114;2023-09-19T06:30:09;5.22;;;3.38;;
19621;SDS011;9958;33.196;-97.114;2023-09-19T06:32:38;3.88;;;3.47;;
19621;SDS011;9958;33.196;-97.114;2023-09-19T06:35:09;5.07;;;3.50;;
19621;SDS011;9958;33.196;-97.114;2023-09-19T06:37:38;4.57;;;3.30;;
19621;SDS011;9958;33.196;-97.114;2023-09-19T06:40:08;5.60;;;3.97;;
19621;SDS011;9958;33.196;-97.114;2023-09-19T06:42:41;4.82;;;3.42;;
19621;SDS011;9958;33.196;-97.114;2023-09-19T06:45:10;6.13;;;3.75;;
19621;SDS011;9958;33.196;-97.114;2023-09-19T06:47:43;3.85;;;3.28;;
19621;SDS011;9958;33.196;-97.114;2023-09-19T06:50:15;5.82;;;3.55;;
19621;SDS011;9958;33.196;-97.114;2023-09-19T06:52:48;5.63;;;3.10;;
19621;SDS011;9958;33.196;-97.114;2023-09-19T06:55:17;3.47;;;3.08;;
19621;SDS011;9958;33.196;-97.114;2023-09-19T06:57:47;5.07;;;3.67;;
19621;SDS011;9958;33.196;-97.114;2023-09-19T07:00:16;4.68;;;3.65;;
19621;SDS011;9958;33.196;-97.114;2023-09-19T07:02:54;6.47;;;3.40;;
19621;SDS011;9958;33.196;-97.114;2023-09-19T07:05:27;5.68;;;4.13;;
19621;SDS011;9958;33.196;-97.114;2023-09-19T07:07:56;4.55;;;3.63;;
19621;SDS011;9958;33.196;-97.114;2023-09-19T07:10:26;4.03;;;3.35;;
19621;SDS011;9958;33.196;-97.114;2023-09-19T07:12:58;4.60;;;3.70;;
19621;SDS011;9958;33.196;-97.114;2023-09-19T07:15:27;5.15;;;3.50;;
19621;SDS011;9958;33.196;-97.114;2023-09-19T07:17:56;4.25;;;3.55;;
19621;SDS011;9958;33.196;-97.114;2023-09-19T07:20:27;5.72;;;3.88;;
19621;SDS011;9958;33.196;-97.114;2023-09-19T07:22:57;3.95;;;3.30;;
19621;SDS011;9958;33.196;-97.114;2023-09-19T07:25:26;4.78;;;3.90;;
19621;SDS011;9958;33.196;-97.114;2023-09-19T07:27:58;5.85;;;3.60;;
19621;SDS011;9958;33.196;-97.114;2023-09-19T07:30:26;4.45;;;3.92;;
19621;SDS011;9958;33.196;-97.114;2023-09-19T07:32:55;5.53;;;4.13;;
19621;SDS011;9958;33.196;-97.114;2023-09-19T07:35:24;4.60;;;3.70;;
19621;SDS011;9958;33.196;-97.114;2023-09-19T07:37:52;7.80;;;3.90;;
19621;SDS011;9958;33.196;-97.114;2023-09-19T07:40:22;6.75;;;3.40;;
19621;SDS011;9958;33.196;-97.114;2023-09-19T07:42:52;4.32;;;3.72;;
19621;SDS011;9958;33.196;-97.114;2023-09-19T07:45:22;5.03;;;3.75;;
19621;SDS011;9958;33.196;-97.114;2023-09-19T07:47:50;7.28;;;3.38;;
19621;SDS011;9958;33.196;-97.114;2023-09-19T07:50:19;6.35;;;3.88;;
19621;SDS011;9958;33.196;-97.114;2023-09-19T07:52:48;6.10;;;4.18;;
19621;SDS011;9958;33.196;-97.114;2023-09-19T07:55:18;4.25;;;3.83;;
19621;SDS011;9958;33.196;-97.114;2023-09-19T07:57:49;4.70;;;3.08;;
19621;SDS011;9958;33.196;-97.114;2023-09-19T08:00:18;4.68;;;3.53;;
19621;SDS011;9958;33.196;-97.114;2023-09-19T08:02:47;5.25;;;3.75;;
19621;SDS011;9958;33.196;-97.114;2023-09-19T08:05:18;8.25;;;3.50;;
19621;SDS011;9958;33.196;-97.114;2023-09-19T08:07:48;4.57;;;3.50;;
19621;SDS011;9958;33.196;-97.114;2023-09-19T08:10:17;4.65;;;3.72;;
19621;SDS011;9958;33.196;-97.114;2023-09-19T08:12:47;4.53;;;3.25;;
19621;SDS011;9958;33.196;-97.114;2023-09-19T08:15:21;5.68;;;3.42;;
19621;SDS011;9958;33.196;-97.114;2023-09-19T08:17:51;4.95;;;3.15;;
19621;SDS011;9958;33.196;-97.114;2023-09-19T08:20:19;5.80;;;3.60;;
19621;SDS011;9958;33.196;-97.114;2023-09-19T08:22:48;5.32;;;3.65;;
19621;SDS011;9958;33.196;-97.114;2023-09-19T08:25:20;4.13;;;3.22;;
19621;SDS011;9958;33.196;-97.114;2023-09-19T08:27:49;4.88;;;3.65;;
19621;SDS011;9958;33.196;-97.114;2023-09-19T08:30:19;4.35;;;3.35;;
19621;SDS011;9958;33.196;-97.114;2023-09-19T08:32:51;5.75;;;3.50;;
19621;SDS011;9958;33.196;-97.114;2023-09-19T08:35:24;8.02;;;3.80;;
19621;SDS011;9958;33.196;-97.114;2023-09-19T08:37:52;3.60;;;3.17;;
19621;SDS011;9958;33.196;-97.114;2023-09-19T08:40:21;5.43;;;3.65;;
19621;SDS011;9958;33.196;-97.114;2023-09-19T08:42:49;5.70;;;3.50;;
19621;SDS011;9958;33.196;-97.114;2023-09-19T08:45:19;4.97;;;3.70;;
19621;SDS011;9958;33.196;-97.114;2023-09-19T08:47:53;4.57;;;3.53;;
19621;SDS011;9958;33.196;-97.114;2023-09-19T08:50:29;4.90;;;3.50;;
19621;SDS011;9958;33.196;-97.114;2023-09-19T08:53:00;5.03;;;3.92;;
19621;SDS011;9958;33.196;-97.114;2023-09-19T08:55:33;4.38;;;3.30;;
19621;SDS011;9958;33.196;-97.114;2023-09-19T08:58:03;4.20;;;3.60;;
19621;SDS011;9958;33.196;-97.114;2023-09-19T09:00:33;4.68;;;3.25;;
19621;SDS011;9958;33.196;-97.114;2023-09-19T09:03:04;5.57;;;3.78;;
19621;SDS011;9958;33.196;-97.114;2023-09-19T09:05:36;4.93;;;3.50;;
19621;SDS011;9958;33.196;-97.114;2023-09-19T09:08:06;6.68;;;3.55;;
19621;SDS011;9958;33.196;-97.114;2023-09-19T09:10:35;4.50;;;3.67;;
19621;SDS011;9958;33.196;-97.114;2023-09-19T09:13:06;4.45;;;3.55;;
19621;SDS011;9958;33.196;-97.114;2023-09-19T09:15:35;5.63;;;3.45;;
19621;SDS011;9958;33.196;-97.114;2023-09-19T09:18:06;4.68;;;3.80;;
19621;SDS011;9958;33.196;-97.114;2023-09-19T09:20:34;4.90;;;3.13;;
19621;SDS011;9958;33.196;-97.114;2023-09-19T09:23:05;4.88;;;3.33;;
19621;SDS011;9958;33.196;-97.114;2023-09-19T09:25:50;6.85;;;3.35;;
19621;SDS011;9958;33.196;-97.114;2023-09-19T09:28:22;5.57;;;4.05;;
19621;SDS011;9958;33.196;-97.114;2023-09-19T09:30:52;5.03;;;4.05;;
19621;SDS011;9958;33.196;-97.114;2023-09-19T09:33:22;3.90;;;3.50;;
19621;SDS011;9958;33.196;-97.114;2023-09-19T09:35:51;4.60;;;3.42;;
19621;SDS011;9958;33.196;-97.114;2023-09-19T09:38:22;5.63;;;3.45;;
19621;SDS011;9958;33.196;-97.114;2023-09-19T09:41:00;4.88;;;3.28;;
19621;SDS011;9958;33.196;-97.114;2023-09-19T09:43:32;5.35;;;3.92;;
19621;SDS011;9958;33.196;-97.114;2023-09-19T09:46:12;4.68;;;3.67;;
19621;SDS011;9958;33.196;-97.114;2023-09-19T09:49:01;5.82;;;3.33;;
19621;SDS011;9958;33.196;-97.114;2023-09-19T09:51:50;5.00;;;3.83;;
19621;SDS011;9958;33.196;-97.114;2023-09-19T09:54:27;4.90;;;3.88;;
19621;SDS011;9958;33.196;-97.114;2023-09-19T09:57:02;4.72;;;3.20;;
19621;SDS011;9958;33.196;-97.114;2023-09-19T09:59:46;4.32;;;3.70;;
19621;SDS011;9958;33.196;-97.114;2023-09-19T10:02:19;7.50;;;4.30;;
19621;SDS011;9958;33.196;-97.114;2023-09-19T10:04:56;7.88;;;3.55;;
19621;SDS011;9958;33.196;-97.114;2023-09-19T10:07:39;4.38;;;3.67;;
19621;SDS011;9958;33.196;-97.114;2023-09-19T10:10:14;4.45;;;3.67;;
19621;SDS011;9958;33.196;-97.114;2023-09-19T10:13:03;5.75;;;3.80;;
19621;SDS011;9958;33.196;-97.114;2023-09-19T10:15:38;4.75;;;3.70;;
19621;SDS011;9958;33.196;-97.114;2023-09-19T10:18:10;5.28;;;3.75;;
19621;SDS011;9958;33.196;-97.114;2023-09-19T10:20:44;6.10;;;4.03;;
19621;SDS011;9958;33.196;-97.114;2023-09-19T10:23:15;7.05;;;4.07;;
19621;SDS011;9958;33.196;-97.114;2023-09-19T10:25:51;6.72;;;3.72;;
19621;SDS011;9958;33.196;-97.114;2023-09-19T10:28:20;7.00;;;3.92;;
19621;SDS011;9958;33.196;-97.114;2023-09-19T10:30:49;5.05;;;4.10;;
19621;SDS011;9958;33.196;-97.114;2023-09-19T10:33:18;5.75;;;3.78;;
19621;SDS011;9958;33.196;-97.114;2023-09-19T10:35:49;5.13;;;4.03;;
19621;SDS011;9958;33.196;-97.114;2023-09-19T10:38:20;4.43;;;3.95;;
19621;SDS011;9958;33.196;-97.114;2023-09-19T10:40:51;4.15;;;3.72;;
19621;SDS011;9958;33.196;-97.114;2023-09-19T10:43:25;7.85;;;4.38;;
19621;SDS011;9958;33.196;-97.114;2023-09-19T10:46:01;8.02;;;4.47;;
19621;SDS011;9958;33.196;-97.114;2023-09-19T10:48:31;8.52;;;4.80;;
19621;SDS011;9958;33.196;-97.114;2023-09-19T10:51:03;7.05;;;4.30;;
19621;SDS011;9958;33.196;-97.114;2023-09-19T10:53:40;5.40;;;3.97;;
19621;SDS011;9958;33.196;-97.114;2023-09-19T10:56:15;5.28;;;4.20;;
19621;SDS011;9958;33.196;-97.114;2023-09-19T10:58:54;4.93;;;3.97;;
19621;SDS011;9958;33.196;-97.114;2023-09-19T11:01:44;5.35;;;4.03;;
19621;SDS011;9958;33.196;-97.114;2023-09-19T11:07:10;6.55;;;4.07;;
19621;SDS011;9958;33.196;-97.114;2023-09-19T11:09:46;7.35;;;4.53;;
19621;SDS011;9958;33.196;-97.114;2023-09-19T11:24:32;5.57;;;4.55;;
19621;SDS011;9958;33.196;-97.114;2023-09-19T11:27:10;7.22;;;4.75;;
19621;SDS011;9958;33.196;-97.114;2023-09-19T11:29:39;6.45;;;4.35;;
19621;SDS011;9958;33.196;-97.114;2023-09-19T11:32:08;5.78;;;4.38;;
19621;SDS011;9958;33.196;-97.114;2023-09-19T11:40:46;5.93;;;4.15;;
19621;SDS011;9958;33.196;-97.114;2023-09-19T11:43:30;5.30;;;4.18;;
19621;SDS011;9958;33.196;-97.114;2023-09-19T11:46:04;9.52;;;4.28;;
19621;SDS011;9958;33.196;-97.114;2023-09-19T11:48:32;5.80;;;4.70;;
19621;SDS011;9958;33.196;-97.114;2023-09-19T11:51:10;5.15;;;4.28;;
19621;SDS011;9958;33.196;-97.114;2023-09-19T11:53:45;5.88;;;4.18;;
19621;SDS011;9958;33.196;-97.114;2023-09-19T11:56:18;6.78;;;4.15;;
19621;SDS011;9958;33.196;-97.114;2023-09-19T11:58:49;5.88;;;4.72;;
19621;SDS011;9958;33.196;-97.114;2023-09-19T12:01:29;7.38;;;4.93;;
19621;SDS011;9958;33.196;-97.114;2023-09-19T12:04:00;6.13;;;4.53;;
19621;SDS011;9958;33.196;-97.114;2023-09-19T12:06:30;7.38;;;4.82;;
19621;SDS011;9958;33.196;-97.114;2023-09-19T12:08:59;5.60;;;4.53;;
19621;SDS011;9958;33.196;-97.114;2023-09-19T12:11:33;7.13;;;5.25;;
19621;SDS011;9958;33.196;-97.114;2023-09-19T12:14:09;5.47;;;4.63;;
19621;SDS011;9958;33.196;-97.114;2023-09-19T12:16:39;9.63;;;4.63;;
19621;SDS011;9958;33.196;-97.114;2023-09-19T12:19:19;7.22;;;4.68;;
19621;SDS011;9958;33.196;-97.114;2023-09-19T12:21:55;6.00;;;4.22;;
19621;SDS011;9958;33.196;-97.114;2023-09-19T12:24:25;6.75;;;4.93;;
19621;SDS011;9958;33.196;-97.114;2023-09-19T12:26:59;5.20;;;4.35;;
19621;SDS011;9958;33.196;-97.114;2023-09-19T12:29:31;5.20;;;4.70;;
19621;SDS011;9958;33.196;-97.114;2023-09-19T12:32:08;6.97;;;4.47;;
19621;SDS011;9958;33.196;-97.114;2023-09-19T12:34:37;8.63;;;4.88;;
19621;SDS011;9958;33.196;-97.114;2023-09-19T12:37:08;6.88;;;4.70;;
19621;SDS011;9958;33.196;-97.114;2023-09-19T12:39:46;5.45;;;4.72;;
19621;SDS011;9958;33.196;-97.114;2023-09-19T12:42:18;6.32;;;4.63;;
19621;SDS011;9958;33.196;-97.114;2023-09-19T12:44:48;7.05;;;4.88;;
19621;SDS011;9958;33.196;-97.114;2023-09-19T12:47:20;6.50;;;4.80;;
19621;SDS011;9958;33.196;-97.114;2023-09-19T12:50:05;5.68;;;5.07;;
19621;SDS011;9958;33.196;-97.114;2023-09-19T12:52:43;5.78;;;4.55;;
19621;SDS011;9958;33.196;-97.114;2023-09-19T12:55:22;8.02;;;4.93;;
19621;SDS011;9958;33.196;-97.114;2023-09-19T12:58:08;7.70;;;4.90;;
19621;SDS011;9958;33.196;-97.114;2023-09-19T13:00:41;7.70;;;4.85;;
19621;SDS011;9958;33.196;-97.114;2023-09-19T13:03:13;5.18;;;4.25;;
19621;SDS011;9958;33.196;-97.114;2023-09-19T13:05:49;7.72;;;4.85;;
19621;SDS011;9958;33.196;-97.114;2023-09-19T13:08:20;6.22;;;5.07;;
19621;SDS011;9958;33.196;-97.114;2023-09-19T13:11:06;5.80;;;5.00;;
19621;SDS011;9958;33.196;-97.114;2023-09-19T13:13:40;7.72;;;5.55;;
19621;SDS011;9958;33.196;-97.114;2023-09-19T13:16:09;6.28;;;4.85;;
19621;SDS011;9958;33.196;-97.114;2023-09-19T13:18:46;5.93;;;4.55;;
19621;SDS011;9958;33.196;-97.114;2023-09-19T13:21:27;6.55;;;4.97;;
19621;SDS011;9958;33.196;-97.114;2023-09-19T13:24:18;6.95;;;5.15;;
19621;SDS011;9958;33.196;-97.114;2023-09-19T13:26:48;6.35;;;4.90;;
19621;SDS011;9958;33.196;-97.114;2023-09-19T13:29:19;6.18;;;4.65;;
19621;SDS011;9958;33.196;-97.114;2023-09-19T13:31:48;9.10;;;4.53;;
19621;SDS011;9958;33.196;-97.114;2023-09-19T13:34:18;5.38;;;4.60;;
19621;SDS011;9958;33.196;-97.114;2023-09-19T13:36:47;7.53;;;5.32;;
19621;SDS011;9958;33.196;-97.114;2023-09-19T13:39:15;5.15;;;4.63;;
19621;SDS011;9958;33.196;-97.114;2023-09-19T13:41:44;5.97;;;4.88;;
19621;SDS011;9958;33.196;-97.114;2023-09-19T13:44:13;7.05;;;4.68;;
19621;SDS011;9958;33.196;-97.114;2023-09-19T13:46:44;5.82;;;4.75;;
19621;SDS011;9958;33.196;-97.114;2023-09-19T13:49:12;9.27;;;5.20;;
19621;SDS011;9958;33.196;-97.114;2023-09-19T13:51:40;7.22;;;5.40;;
19621;SDS011;9958;33.196;-97.114;2023-09-19T13:54:09;5.32;;;4.80;;
19621;SDS011;9958;33.196;-97.114;2023-09-19T13:56:39;8.68;;;5.55;;
19621;SDS011;9958;33.196;-97.114;2023-09-19T13:59:08;5.18;;;4.38;;
19621;SDS011;9958;33.196;-97.114;2023-09-19T14:01:36;5.35;;;4.53;;
19621;SDS011;9958;33.196;-97.114;2023-09-19T14:04:07;5.97;;;4.30;;
19621;SDS011;9958;33.196;-97.114;2023-09-19T14:06:36;7.55;;;4.45;;
19621;SDS011;9958;33.196;-97.114;2023-09-19T14:09:04;5.70;;;4.97;;
19621;SDS011;9958;33.196;-97.114;2023-09-19T14:11:33;6.68;;;5.18;;
19621;SDS011;9958;33.196;-97.114;2023-09-19T14:14:01;5.28;;;4.78;;
19621;SDS011;9958;33.196;-97.114;2023-09-19T14:16:30;7.13;;;4.97;;
19621;SDS011;9958;33.196;-97.114;2023-09-19T14:18:58;6.65;;;4.63;;
19621;SDS011;9958;33.196;-97.114;2023-09-19T14:21:28;9.43;;;5.43;;
19621;SDS011;9958;33.196;-97.114;2023-09-19T14:23:57;6.07;;;4.70;;
19621;SDS011;9958;33.196;-97.114;2023-09-19T14:26:25;9.98;;;5.03;;
19621;SDS011;9958;33.196;-97.114;2023-09-19T14:28:53;7.30;;;5.22;;
19621;SDS011;9958;33.196;-97.114;2023-09-19T14:31:22;7.30;;;5.28;;
19621;SDS011;9958;33.196;-97.114;2023-09-19T14:33:54;10.02;;;5.00;;
19621;SDS011;9958;33.196;-97.114;2023-09-19T14:36:22;6.53;;;4.85;;
19621;SDS011;9958;33.196;-97.114;2023-09-19T14:38:53;5.82;;;4.75;;
19621;SDS011;9958;33.196;-97.114;2023-09-19T14:41:22;5.28;;;4.18;;
19621;SDS011;9958;33.196;-97.114;2023-09-19T14:43:51;5.47;;;4.78;;
19621;SDS011;9958;33.196;-97.114;2023-09-19T14:46:20;6.45;;;5.38;;
19621;SDS011;9958;33.196;-97.114;2023-09-19T14:48:50;5.68;;;4.85;;
19621;SDS011;9958;33.196;-97.114;2023-09-19T14:51:19;7.40;;;5.03;;
19621;SDS011;9958;33.196;-97.114;2023-09-19T14:53:47;6.30;;;5.00;;
19621;SDS011;9958;33.196;-97.114;2023-09-19T14:56:17;6.22;;;4.85;;
19621;SDS011;9958;33.196;-97.114;2023-09-19T14:58:45;5.43;;;4.93;;
19621;SDS011;9958;33.196;-97.114;2023-09-19T15:01:14;7.22;;;5.35;;
19621;SDS011;9958;33.196;-97.114;2023-09-19T15:03:43;6.40;;;4.78;;
19621;SDS011;9958;33.196;-97.114;2023-09-19T15:06:12;5.88;;;4.97;;
19621;SDS011;9958;33.196;-97.114;2023-09-19T15:08:43;9.75;;;4.78;;
19621;SDS011;9958;33.196;-97.114;2023-09-19T15:11:12;6.40;;;4.90;;
19621;SDS011;9958;33.196;-97.114;2023-09-19T15:13:44;8.43;;;5.05;;
19621;SDS011;9958;33.196;-97.114;2023-09-19T15:16:13;7.30;;;4.97;;
19621;SDS011;9958;33.196;-97.114;2023-09-19T15:18:42;7.72;;;4.72;;